sensor_id;sensor_type;location;lat;lon;timestamp;P1;durP1;ratioP1;P2;durP2;ratioP2
77332;SDS011;66408;51.326;12.070;2023-07-31T00:01:03;4.47;;;1.20;;
77332;SDS011;66408;51.326;12.070;2023-07-31T00:03:30;2.78;;;1.17;;
77332;SDS011;66408;51.326;12.070;2023-07-31T00:05:56;4.25;;;1.52;;
77332;SDS011;66408;51.326;12.070;2023-07-31T00:08:23;2.90;;;1.30;;
77332;SDS011;66408;51.326;12.070;2023-07-31T00:10:51;3.20;;;1.10;;
77332;SDS011;66408;51.326;12.070;2023-07-31T00:13:19;3.78;;;1.05;;
77332;SDS011;66408;51.326;12.070;2023-07-31T00:15:45;4.10;;;1.50;;
77332;SDS011;66408;51.326;12.070;2023-07-31T00:18:12;1.67;;;1.00;;
77332;SDS011;66408;51.326;12.070;2023-07-31T00:20:38;2.53;;;1.10;;
77332;SDS011;66408;51.326;12.070;2023-07-31T00:23:05;2.72;;;0.90;;
77332;SDS011;66408;51.326;12.070;2023-07-31T00:25:31;3.60;;;1.00;;
77332;SDS011;66408;51.326;12.070;2023-07-31T00:27:58;1.83;;;1.20;;
77332;SDS011;66408;51.326;12.070;2023-07-31T00:30:24;2.85;;;1.15;;
77332;SDS011;66408;51.326;12.070;2023-07-31T00:32:53;1.98;;;1.13;;
77332;SDS011;66408;51.326;12.070;2023-07-31T00:35:19;2.08;;;1.10;;
77332;SDS011;66408;51.326;12.070;2023-07-31T00:37:46;2.40;;;1.00;;
77332;SDS011;66408;51.326;12.070;2023-07-31T00:40:12;2.55;;;1.10;;
77332;SDS011;66408;51.326;12.070;2023-07-31T00:42:40;1.88;;;1.10;;
77332;SDS011;66408;51.326;12.070;2023-07-31T00:45:06;2.30;;;1.23;;
77332;SDS011;66408;51.326;12.070;2023-07-31T00:47:33;3.28;;;1.08;;
77332;SDS011;66408;51.326;12.070;2023-07-31T00:49:59;3.22;;;1.10;;
77332;SDS011;66408;51.326;12.070;2023-07-31T00:52:26;3.70;;;1.10;;
77332;SDS011;66408;51.326;12.070;2023-07-31T00:54:53;2.97;;;1.10;;
77332;SDS011;66408;51.326;12.070;2023-07-31T00:57:19;3.47;;;1.17;;
77332;SDS011;66408;51.326;12.070;2023-07-31T00:59:46;4.70;;;2.00;;
77332;SDS011;66408;51.326;12.070;2023-07-31T01:02:12;3.88;;;1.20;;
77332;SDS011;66408;51.326;12.070;2023-07-31T01:04:39;3.33;;;1.25;;
77332;SDS011;66408;51.326;12.070;2023-07-31T01:07:30;2.95;;;1.35;;
77332;SDS011;66408;51.326;12.070;2023-07-31T01:10:21;3.53;;;1.10;;
77332;SDS011;66408;51.326;12.070;2023-07-31T01:12:48;3.15;;;1.10;;
77332;SDS011;66408;51.326;12.070;2023-07-31T01:15:17;4.60;;;1.27;;
77332;SDS011;66408;51.326;12.070;2023-07-31T01:17:44;4.43;;;1.30;;
77332;SDS011;66408;51.326;12.070;2023-07-31T01:20:18;2.47;;;0.95;;
77332;SDS011;66408;51.326;12.070;2023-07-31T01:26:30;2.88;;;1.17;;
77332;SDS011;66408;51.326;12.070;2023-07-31T01:29:17;4.30;;;1.15;;
77332;SDS011;66408;51.326;12.070;2023-07-31T01:31:51;3.25;;;1.00;;
77332;SDS011;66408;51.326;12.070;2023-07-31T01:34:21;4.72;;;1.17;;
77332;SDS011;66408;51.326;12.070;2023-07-31T01:36:48;2.70;;;1.10;;
77332;SDS011;66408;51.326;12.070;2023-07-31T01:39:15;9.82;;;1.50;;
77332;SDS011;66408;51.326;12.070;2023-07-31T01:41:42;1.77;;;1.10;;
77332;SDS011;66408;51.326;12.070;2023-07-31T01:44:08;3.65;;;1.40;;
77332;SDS011;66408;51.326;12.070;2023-07-31T01:46:35;3.63;;;1.40;;
77332;SDS011;66408;51.326;12.070;2023-07-31T01:49:01;3.35;;;1.10;;
77332;SDS011;66408;51.326;12.070;2023-07-31T01:51:28;2.40;;;1.38;;
77332;SDS011;66408;51.326;12.070;2023-07-31T01:53:54;2.65;;;1.10;;
77332;SDS011;66408;51.326;12.070;2023-07-31T01:56:21;3.22;;;1.13;;
77332;SDS011;66408;51.326;12.070;2023-07-31T01:58:47;3.75;;;1.40;;
77332;SDS011;66408;51.326;12.070;2023-07-31T02:01:14;3.65;;;1.30;;
77332;SDS011;66408;51.326;12.070;2023-07-31T02:03:40;3.10;;;1.20;;
77332;SDS011;66408;51.326;12.070;2023-07-31T02:06:08;5.03;;;1.67;;
77332;SDS011;66408;51.326;12.070;2023-07-31T02:08:35;3.60;;;1.30;;
77332;SDS011;66408;51.326;12.070;2023-07-31T02:11:01;2.33;;;1.17;;
77332;SDS011;66408;51.326;12.070;2023-07-31T02:13:28;2.25;;;1.00;;
77332;SDS011;66408;51.326;12.070;2023-07-31T02:15:54;3.60;;;1.38;;
77332;SDS011;66408;51.326;12.070;2023-07-31T02:18:21;5.30;;;1.17;;
77332;SDS011;66408;51.326;12.070;2023-07-31T02:20:51;3.15;;;1.10;;
77332;SDS011;66408;51.326;12.070;2023-07-31T02:23:18;2.90;;;1.20;;
77332;SDS011;66408;51.326;12.070;2023-07-31T02:25:45;1.98;;;1.20;;
77332;SDS011;66408;51.326;12.070;2023-07-31T02:28:12;2.38;;;1.20;;
77332;SDS011;66408;51.326;12.070;2023-07-31T02:30:39;5.47;;;1.40;;
77332;SDS011;66408;51.326;12.070;2023-07-31T02:33:05;2.33;;;1.10;;
77332;SDS011;66408;51.326;12.070;2023-07-31T02:35:32;2.90;;;1.00;;
77332;SDS011;66408;51.326;12.070;2023-07-31T02:37:58;1.55;;;1.20;;
77332;SDS011;66408;51.326;12.070;2023-07-31T02:40:25;1.90;;;1.20;;
77332;SDS011;66408;51.326;12.070;2023-07-31T02:42:51;4.28;;;1.10;;
77332;SDS011;66408;51.326;12.070;2023-07-31T02:45:18;3.83;;;1.30;;
77332;SDS011;66408;51.326;12.070;2023-07-31T02:47:44;6.28;;;1.40;;
77332;SDS011;66408;51.326;12.070;2023-07-31T02:50:11;4.50;;;1.42;;
77332;SDS011;66408;51.326;12.070;2023-07-31T02:52:37;3.13;;;1.15;;
77332;SDS011;66408;51.326;12.070;2023-07-31T02:55:04;3.17;;;1.50;;
77332;SDS011;66408;51.326;12.070;2023-07-31T02:57:31;3.65;;;1.30;;
77332;SDS011;66408;51.326;12.070;2023-07-31T02:59:58;3.58;;;0.93;;
77332;SDS011;66408;51.326;12.070;2023-07-31T03:02:25;1.58;;;1.10;;
77332;SDS011;66408;51.326;12.070;2023-07-31T03:04:51;5.32;;;1.25;;
77332;SDS011;66408;51.326;12.070;2023-07-31T03:07:18;3.90;;;1.27;;
77332;SDS011;66408;51.326;12.070;2023-07-31T03:09:45;2.42;;;0.93;;
77332;SDS011;66408;51.326;12.070;2023-07-31T03:12:11;4.68;;;1.20;;
77332;SDS011;66408;51.326;12.070;2023-07-31T03:14:38;2.00;;;1.30;;
77332;SDS011;66408;51.326;12.070;2023-07-31T03:17:04;4.18;;;1.30;;
77332;SDS011;66408;51.326;12.070;2023-07-31T03:19:31;2.85;;;1.02;;
77332;SDS011;66408;51.326;12.070;2023-07-31T03:21:58;4.18;;;1.33;;
77332;SDS011;66408;51.326;12.070;2023-07-31T03:24:26;3.45;;;1.23;;
77332;SDS011;66408;51.326;12.070;2023-07-31T03:26:52;2.58;;;1.30;;
77332;SDS011;66408;51.326;12.070;2023-07-31T03:29:19;3.35;;;1.45;;
77332;SDS011;66408;51.326;12.070;2023-07-31T03:31:49;2.88;;;1.30;;
77332;SDS011;66408;51.326;12.070;2023-07-31T03:34:16;3.28;;;1.33;;
77332;SDS011;66408;51.326;12.070;2023-07-31T03:36:43;2.33;;;1.10;;
77332;SDS011;66408;51.326;12.070;2023-07-31T03:39:19;2.47;;;1.30;;
77332;SDS011;66408;51.326;12.070;2023-07-31T03:41:46;4.20;;;1.40;;
77332;SDS011;66408;51.326;12.070;2023-07-31T03:44:12;3.80;;;1.00;;
77332;SDS011;66408;51.326;12.070;2023-07-31T03:46:39;4.70;;;1.30;;
77332;SDS011;66408;51.326;12.070;2023-07-31T03:49:06;3.38;;;1.40;;
77332;SDS011;66408;51.326;12.070;2023-07-31T03:51:32;3.20;;;1.40;;
77332;SDS011;66408;51.326;12.070;2023-07-31T03:53:59;2.00;;;1.30;;
77332;SDS011;66408;51.326;12.070;2023-07-31T03:56:26;4.28;;;1.42;;
77332;SDS011;66408;51.326;12.070;2023-07-31T03:58:52;3.80;;;1.45;;
77332;SDS011;66408;51.326;12.070;2023-07-31T04:01:19;3.28;;;1.15;;
77332;SDS011;66408;51.326;12.070;2023-07-31T04:03:46;3.63;;;1.10;;
77332;SDS011;66408;51.326;12.070;2023-07-31T04:06:13;3.17;;;1.27;;
77332;SDS011;66408;51.326;12.070;2023-07-31T04:08:39;4.45;;;1.50;;
77332;SDS011;66408;51.326;12.070;2023-07-31T04:11:06;3.05;;;1.17;;
77332;SDS011;66408;51.326;12.070;2023-07-31T04:13:32;3.50;;;1.52;;
77332;SDS011;66408;51.326;12.070;2023-07-31T04:15:59;1.90;;;1.02;;
77332;SDS011;66408;51.326;12.070;2023-07-31T04:18:26;2.92;;;1.27;;
77332;SDS011;66408;51.326;12.070;2023-07-31T04:20:53;2.42;;;1.33;;
77332;SDS011;66408;51.326;12.070;2023-07-31T04:23:19;3.17;;;1.48;;
77332;SDS011;66408;51.326;12.070;2023-07-31T04:25:46;3.67;;;1.50;;
77332;SDS011;66408;51.326;12.070;2023-07-31T04:28:12;1.95;;;1.20;;
77332;SDS011;66408;51.326;12.070;2023-07-31T04:30:39;3.17;;;1.38;;
77332;SDS011;66408;51.326;12.070;2023-07-31T04:33:05;3.85;;;1.58;;
77332;SDS011;66408;51.326;12.070;2023-07-31T04:35:32;3.10;;;1.33;;
77332;SDS011;66408;51.326;12.070;2023-07-31T04:38:01;5.45;;;1.30;;
77332;SDS011;66408;51.326;12.070;2023-07-31T04:40:28;2.85;;;1.40;;
77332;SDS011;66408;51.326;12.070;2023-07-31T04:42:54;3.92;;;1.45;;
77332;SDS011;66408;51.326;12.070;2023-07-31T04:45:21;4.57;;;1.50;;
77332;SDS011;66408;51.326;12.070;2023-07-31T04:47:47;3.60;;;1.58;;
77332;SDS011;66408;51.326;12.070;2023-07-31T04:50:14;3.70;;;1.50;;
77332;SDS011;66408;51.326;12.070;2023-07-31T04:52:40;3.72;;;1.52;;
77332;SDS011;66408;51.326;12.070;2023-07-31T04:55:07;2.42;;;1.27;;
77332;SDS011;66408;51.326;12.070;2023-07-31T04:57:34;6.00;;;1.52;;
77332;SDS011;66408;51.326;12.070;2023-07-31T05:00:00;2.70;;;1.42;;
77332;SDS011;66408;51.326;12.070;2023-07-31T05:02:27;5.18;;;1.60;;
77332;SDS011;66408;51.326;12.070;2023-07-31T05:04:53;4.10;;;1.20;;
77332;SDS011;66408;51.326;12.070;2023-07-31T05:07:20;3.33;;;1.75;;
77332;SDS011;66408;51.326;12.070;2023-07-31T05:09:46;2.72;;;1.30;;
77332;SDS011;66408;51.326;12.070;2023-07-31T05:12:13;3.60;;;1.50;;
77332;SDS011;66408;51.326;12.070;2023-07-31T05:14:39;4.65;;;1.63;;
77332;SDS011;66408;51.326;12.070;2023-07-31T05:17:06;3.63;;;1.50;;
77332;SDS011;66408;51.326;12.070;2023-07-31T05:19:33;2.30;;;1.58;;
77332;SDS011;66408;51.326;12.070;2023-07-31T05:21:59;2.75;;;1.20;;
77332;SDS011;66408;51.326;12.070;2023-07-31T05:24:26;3.08;;;1.30;;
77332;SDS011;66408;51.326;12.070;2023-07-31T05:26:52;3.53;;;1.30;;
77332;SDS011;66408;51.326;12.070;2023-07-31T05:29:19;2.92;;;1.50;;
77332;SDS011;66408;51.326;12.070;2023-07-31T05:31:45;3.92;;;1.40;;
77332;SDS011;66408;51.326;12.070;2023-07-31T05:34:13;4.93;;;1.70;;
77332;SDS011;66408;51.326;12.070;2023-07-31T05:36:39;2.85;;;1.33;;
77332;SDS011;66408;51.326;12.070;2023-07-31T05:39:16;3.42;;;1.30;;
77332;SDS011;66408;51.326;12.070;2023-07-31T05:41:44;4.20;;;1.83;;
77332;SDS011;66408;51.326;12.070;2023-07-31T05:44:11;2.95;;;1.40;;
77332;SDS011;66408;51.326;12.070;2023-07-31T05:46:38;3.80;;;1.60;;
77332;SDS011;66408;51.326;12.070;2023-07-31T05:49:05;2.90;;;1.63;;
77332;SDS011;66408;51.326;12.070;2023-07-31T05:51:31;3.47;;;1.50;;
77332;SDS011;66408;51.326;12.070;2023-07-31T05:53:58;2.50;;;1.38;;
77332;SDS011;66408;51.326;12.070;2023-07-31T05:56:24;2.55;;;1.23;;
77332;SDS011;66408;51.326;12.070;2023-07-31T05:58:53;3.95;;;1.30;;
77332;SDS011;66408;51.326;12.070;2023-07-31T06:01:19;3.58;;;1.60;;
77332;SDS011;66408;51.326;12.070;2023-07-31T06:03:47;4.68;;;1.70;;
77332;SDS011;66408;51.326;12.070;2023-07-31T06:06:14;3.20;;;1.48;;
77332;SDS011;66408;51.326;12.070;2023-07-31T06:08:40;4.45;;;1.55;;
77332;SDS011;66408;51.326;12.070;2023-07-31T06:11:09;4.85;;;1.38;;
77332;SDS011;66408;51.326;12.070;2023-07-31T06:13:36;5.22;;;1.60;;
77332;SDS011;66408;51.326;12.070;2023-07-31T06:16:02;3.20;;;1.55;;
77332;SDS011;66408;51.326;12.070;2023-07-31T06:18:32;3.47;;;1.38;;
77332;SDS011;66408;51.326;12.070;2023-07-31T06:20:59;3.13;;;1.65;;
77332;SDS011;66408;51.326;12.070;2023-07-31T06:23:25;2.45;;;1.38;;
77332;SDS011;66408;51.326;12.070;2023-07-31T06:25:52;4.97;;;1.40;;
77332;SDS011;66408;51.326;12.070;2023-07-31T06:28:18;3.47;;;1.40;;
77332;SDS011;66408;51.326;12.070;2023-07-31T06:30:45;3.58;;;1.55;;
77332;SDS011;66408;51.326;12.070;2023-07-31T06:33:11;6.03;;;1.60;;
77332;SDS011;66408;51.326;12.070;2023-07-31T06:35:38;3.50;;;1.40;;
77332;SDS011;66408;51.326;12.070;2023-07-31T06:38:05;5.53;;;1.75;;
77332;SDS011;66408;51.326;12.070;2023-07-31T06:40:31;4.03;;;1.73;;
77332;SDS011;66408;51.326;12.070;2023-07-31T06:42:57;3.50;;;1.40;;
77332;SDS011;66408;51.326;12.070;2023-07-31T06:45:24;4.68;;;1.50;;
77332;SDS011;66408;51.326;12.070;2023-07-31T06:47:51;4.20;;;1.58;;
77332;SDS011;66408;51.326;12.070;2023-07-31T06:50:17;3.53;;;1.70;;
77332;SDS011;66408;51.326;12.070;2023-07-31T06:52:44;3.42;;;1.60;;
77332;SDS011;66408;51.326;12.070;2023-07-31T06:55:18;4.53;;;1.55;;
77332;SDS011;66408;51.326;12.070;2023-07-31T06:57:46;3.90;;;1.65;;
77332;SDS011;66408;51.326;12.070;2023-07-31T07:00:13;3.95;;;1.60;;
77332;SDS011;66408;51.326;12.070;2023-07-31T07:02:40;3.45;;;1.58;;
77332;SDS011;66408;51.326;12.070;2023-07-31T07:05:07;3.75;;;1.48;;
77332;SDS011;66408;51.326;12.070;2023-07-31T07:07:34;3.47;;;1.73;;
77332;SDS011;66408;51.326;12.070;2023-07-31T07:10:02;4.22;;;1.45;;
77332;SDS011;66408;51.326;12.070;2023-07-31T07:12:30;4.10;;;1.80;;
77332;SDS011;66408;51.326;12.070;2023-07-31T07:14:59;4.68;;;1.48;;
77332;SDS011;66408;51.326;12.070;2023-07-31T07:17:31;3.83;;;1.77;;
77332;SDS011;66408;51.326;12.070;2023-07-31T07:19:58;4.50;;;1.55;;
77332;SDS011;66408;51.326;12.070;2023-07-31T07:22:25;3.42;;;1.50;;
77332;SDS011;66408;51.326;12.070;2023-07-31T07:24:53;5.47;;;2.00;;
77332;SDS011;66408;51.326;12.070;2023-07-31T07:27:20;2.78;;;1.48;;
77332;SDS011;66408;51.326;12.070;2023-07-31T07:29:46;2.97;;;1.55;;
77332;SDS011;66408;51.326;12.070;2023-07-31T07:32:13;3.53;;;1.85;;
77332;SDS011;66408;51.326;12.070;2023-07-31T07:34:39;2.90;;;1.38;;
77332;SDS011;66408;51.326;12.070;2023-07-31T07:37:06;4.25;;;1.45;;
77332;SDS011;66408;51.326;12.070;2023-07-31T07:39:32;3.08;;;1.33;;
77332;SDS011;66408;51.326;12.070;2023-07-31T07:41:59;4.05;;;1.80;;
77332;SDS011;66408;51.326;12.070;2023-07-31T07:44:25;3.00;;;1.45;;
77332;SDS011;66408;51.326;12.070;2023-07-31T07:46:53;5.32;;;1.70;;
77332;SDS011;66408;51.326;12.070;2023-07-31T07:49:19;6.25;;;1.60;;
77332;SDS011;66408;51.326;12.070;2023-07-31T07:51:48;4.20;;;1.70;;
77332;SDS011;66408;51.326;12.070;2023-07-31T07:54:16;3.72;;;1.77;;
77332;SDS011;66408;51.326;12.070;2023-07-31T07:56:47;3.65;;;1.60;;
77332;SDS011;66408;51.326;12.070;2023-07-31T07:59:14;2.85;;;1.63;;
77332;SDS011;66408;51.326;12.070;2023-07-31T08:01:40;4.30;;;1.38;;
77332;SDS011;66408;51.326;12.070;2023-07-31T08:04:07;4.07;;;1.90;;
77332;SDS011;66408;51.326;12.070;2023-07-31T08:06:33;4.28;;;1.83;;
77332;SDS011;66408;51.326;12.070;2023-07-31T08:09:00;3.15;;;1.52;;
77332;SDS011;66408;51.326;12.070;2023-07-31T08:11:32;4.35;;;1.60;;
77332;SDS011;66408;51.326;12.070;2023-07-31T08:13:59;3.75;;;1.65;;
77332;SDS011;66408;51.326;12.070;2023-07-31T08:16:26;5.53;;;1.58;;
77332;SDS011;66408;51.326;12.070;2023-07-31T08:18:53;3.05;;;1.70;;
77332;SDS011;66408;51.326;12.070;2023-07-31T08:21:20;3.47;;;1.70;;
77332;SDS011;66408;51.326;12.070;2023-07-31T08:23:47;3.85;;;1.60;;
77332;SDS011;66408;51.326;12.070;2023-07-31T08:26:14;4.72;;;1.60;;
77332;SDS011;66408;51.326;12.070;2023-07-31T08:28:44;3.85;;;1.52;;
77332;SDS011;66408;51.326;12.070;2023-07-31T08:31:11;5.75;;;1.33;;
77332;SDS011;66408;51.326;12.070;2023-07-31T08:33:38;5.63;;;1.60;;
77332;SDS011;66408;51.326;12.070;2023-07-31T08:36:06;4.13;;;1.98;;
77332;SDS011;66408;51.326;12.070;2023-07-31T08:38:33;3.70;;;1.48;;
77332;SDS011;66408;51.326;12.070;2023-07-31T08:40:59;2.65;;;1.70;;
77332;SDS011;66408;51.326;12.070;2023-07-31T08:43:26;4.18;;;1.80;;
77332;SDS011;66408;51.326;12.070;2023-07-31T08:45:53;5.03;;;2.00;;
77332;SDS011;66408;51.326;12.070;2023-07-31T08:48:21;3.70;;;1.77;;
77332;SDS011;66408;51.326;12.070;2023-07-31T08:50:49;3.28;;;1.58;;
77332;SDS011;66408;51.326;12.070;2023-07-31T08:53:17;3.35;;;1.60;;
77332;SDS011;66408;51.326;12.070;2023-07-31T08:55:44;4.30;;;1.73;;
77332;SDS011;66408;51.326;12.070;2023-07-31T08:58:12;3.85;;;1.55;;
77332;SDS011;66408;51.326;12.070;2023-07-31T09:00:39;3.92;;;1.80;;
77332;SDS011;66408;51.326;12.070;2023-07-31T09:03:14;3.42;;;1.67;;
77332;SDS011;66408;51.326;12.070;2023-07-31T09:05:43;3.67;;;1.60;;
77332;SDS011;66408;51.326;12.070;2023-07-31T09:08:15;6.38;;;1.80;;
77332;SDS011;66408;51.326;12.070;2023-07-31T09:10:45;2.95;;;1.52;;
77332;SDS011;66408;51.326;12.070;2023-07-31T09:13:13;5.88;;;2.35;;
77332;SDS011;66408;51.326;12.070;2023-07-31T09:15:41;4.53;;;2.03;;
77332;SDS011;66408;51.326;12.070;2023-07-31T09:18:10;5.55;;;1.80;;
77332;SDS011;66408;51.326;12.070;2023-07-31T09:20:37;4.32;;;1.80;;
77332;SDS011;66408;51.326;12.070;2023-07-31T09:23:05;2.80;;;1.65;;
77332;SDS011;66408;51.326;12.070;2023-07-31T09:25:36;4.43;;;1.70;;
77332;SDS011;66408;51.326;12.070;2023-07-31T09:28:08;4.60;;;1.90;;
77332;SDS011;66408;51.326;12.070;2023-07-31T09:30:46;3.42;;;1.70;;
77332;SDS011;66408;51.326;12.070;2023-07-31T09:33:14;3.15;;;1.80;;
77332;SDS011;66408;51.326;12.070;2023-07-31T09:35:41;3.50;;;1.67;;
77332;SDS011;66408;51.326;12.070;2023-07-31T09:38:11;3.97;;;1.55;;
77332;SDS011;66408;51.326;12.070;2023-07-31T09:40:39;3.40;;;1.92;;
77332;SDS011;66408;51.326;12.070;2023-07-31T09:43:11;5.18;;;2.20;;
77332;SDS011;66408;51.326;12.070;2023-07-31T09:45:39;3.63;;;1.60;;
77332;SDS011;66408;51.326;12.070;2023-07-31T09:48:09;3.60;;;2.00;;
77332;SDS011;66408;51.326;12.070;2023-07-31T09:50:47;3.67;;;1.70;;
77332;SDS011;66408;51.326;12.070;2023-07-31T09:53:15;3.63;;;1.90;;
77332;SDS011;66408;51.326;12.070;2023-07-31T09:55:43;4.60;;;1.70;;
77332;SDS011;66408;51.326;12.070;2023-07-31T09:58:10;2.92;;;1.60;;
77332;SDS011;66408;51.326;12.070;2023-07-31T10:00:38;4.38;;;1.73;;
77332;SDS011;66408;51.326;12.070;2023-07-31T10:03:05;3.78;;;1.98;;
77332;SDS011;66408;51.326;12.070;2023-07-31T10:05:35;2.97;;;1.70;;
77332;SDS011;66408;51.326;12.070;2023-07-31T10:08:04;3.20;;;1.60;;
77332;SDS011;66408;51.326;12.070;2023-07-31T10:10:32;4.57;;;1.95;;
77332;SDS011;66408;51.326;12.070;2023-07-31T10:13:02;3.65;;;1.70;;
77332;SDS011;66408;51.326;12.070;2023-07-31T10:15:31;5.18;;;2.15;;
77332;SDS011;66408;51.326;12.070;2023-07-31T10:17:58;4.78;;;1.80;;
77332;SDS011;66408;51.326;12.070;2023-07-31T10:20:25;3.58;;;1.70;;
77332;SDS011;66408;51.326;12.070;2023-07-31T10:22:54;4.05;;;1.80;;
77332;SDS011;66408;51.326;12.070;2023-07-31T10:25:21;4.00;;;1.58;;
77332;SDS011;66408;51.326;12.070;2023-07-31T10:27:48;5.28;;;1.98;;
77332;SDS011;66408;51.326;12.070;2023-07-31T10:30:15;3.28;;;1.67;;
77332;SDS011;66408;51.326;12.070;2023-07-31T10:32:45;3.50;;;1.73;;
77332;SDS011;66408;51.326;12.070;2023-07-31T10:35:14;3.00;;;1.48;;
77332;SDS011;66408;51.326;12.070;2023-07-31T10:37:44;4.72;;;1.83;;
77332;SDS011;66408;51.326;12.070;2023-07-31T10:42:56;3.85;;;1.73;;
77332;SDS011;66408;51.326;12.070;2023-07-31T10:45:41;3.58;;;1.65;;
77332;SDS011;66408;51.326;12.070;2023-07-31T10:48:15;3.88;;;1.80;;
77332;SDS011;66408;51.326;12.070;2023-07-31T10:50:54;4.40;;;2.13;;
77332;SDS011;66408;51.326;12.070;2023-07-31T10:53:23;3.45;;;1.80;;
77332;SDS011;66408;51.326;12.070;2023-07-31T10:58:18;5.53;;;2.72;;
77332;SDS011;66408;51.326;12.070;2023-07-31T11:00:49;5.40;;;2.25;;
77332;SDS011;66408;51.326;12.070;2023-07-31T11:03:16;4.07;;;1.95;;
77332;SDS011;66408;51.326;12.070;2023-07-31T11:08:24;5.63;;;2.10;;
77332;SDS011;66408;51.326;12.070;2023-07-31T11:11:04;5.05;;;1.88;;
77332;SDS011;66408;51.326;12.070;2023-07-31T11:13:40;5.47;;;1.75;;
77332;SDS011;66408;51.326;12.070;2023-07-31T11:16:19;4.22;;;1.90;;
77332;SDS011;66408;51.326;12.070;2023-07-31T11:18:47;4.13;;;2.00;;
77332;SDS011;66408;51.326;12.070;2023-07-31T11:21:16;4.75;;;1.92;;
77332;SDS011;66408;51.326;12.070;2023-07-31T11:23:48;2.83;;;1.70;;
77332;SDS011;66408;51.326;12.070;2023-07-31T11:26:19;3.13;;;1.92;;
77332;SDS011;66408;51.326;12.070;2023-07-31T11:28:46;4.15;;;2.00;;
77332;SDS011;66408;51.326;12.070;2023-07-31T11:31:14;3.42;;;1.83;;
77332;SDS011;66408;51.326;12.070;2023-07-31T11:33:41;2.85;;;1.80;;
77332;SDS011;66408;51.326;12.070;2023-07-31T11:36:17;3.97;;;1.88;;
77332;SDS011;66408;51.326;12.070;2023-07-31T11:38:45;6.30;;;2.22;;
77332;SDS011;66408;51.326;12.070;2023-07-31T11:41:15;6.75;;;1.88;;
77332;SDS011;66408;51.326;12.070;2023-07-31T11:43:43;5.80;;;1.90;;
77332;SDS011;66408;51.326;12.070;2023-07-31T11:46:11;4.95;;;2.05;;
77332;SDS011;66408;51.326;12.070;2023-07-31T11:48:41;3.33;;;1.70;;
77332;SDS011;66408;51.326;12.070;2023-07-31T11:51:09;3.10;;;1.73;;
77332;SDS011;66408;51.326;12.070;2023-07-31T11:53:40;3.58;;;2.00;;
77332;SDS011;66408;51.326;12.070;2023-07-31T11:56:10;4.40;;;1.98;;
77332;SDS011;66408;51.326;12.070;2023-07-31T11:58:39;5.28;;;2.40;;
77332;SDS011;66408;51.326;12.070;2023-07-31T12:01:07;2.72;;;1.95;;
77332;SDS011;66408;51.326;12.070;2023-07-31T12:03:34;4.03;;;1.90;;
77332;SDS011;66408;51.326;12.070;2023-07-31T12:06:02;4.65;;;1.92;;
77332;SDS011;66408;51.326;12.070;2023-07-31T12:08:29;3.75;;;1.88;;
77332;SDS011;66408;51.326;12.070;2023-07-31T12:11:02;4.90;;;2.25;;
77332;SDS011;66408;51.326;12.070;2023-07-31T12:13:30;4.30;;;2.03;;
77332;SDS011;66408;51.326;12.070;2023-07-31T12:16:01;6.00;;;2.15;;
77332;SDS011;66408;51.326;12.070;2023-07-31T12:18:37;4.68;;;2.30;;
77332;SDS011;66408;51.326;12.070;2023-07-31T12:21:08;4.93;;;2.00;;
77332;SDS011;66408;51.326;12.070;2023-07-31T12:23:37;3.63;;;2.20;;
77332;SDS011;66408;51.326;12.070;2023-07-31T12:28:35;4.05;;;2.13;;
77332;SDS011;66408;51.326;12.070;2023-07-31T12:31:22;4.97;;;2.33;;
77332;SDS011;66408;51.326;12.070;2023-07-31T12:33:50;3.78;;;2.13;;
77332;SDS011;66408;51.326;12.070;2023-07-31T12:36:21;5.28;;;2.00;;
77332;SDS011;66408;51.326;12.070;2023-07-31T12:38:49;5.57;;;2.60;;
77332;SDS011;66408;51.326;12.070;2023-07-31T12:41:17;3.55;;;2.00;;
77332;SDS011;66408;51.326;12.070;2023-07-31T12:43:44;6.80;;;2.17;;
77332;SDS011;66408;51.326;12.070;2023-07-31T12:46:11;6.13;;;2.00;;
77332;SDS011;66408;51.326;12.070;2023-07-31T12:48:39;6.03;;;2.15;;
77332;SDS011;66408;51.326;12.070;2023-07-31T12:51:06;4.57;;;1.90;;
77332;SDS011;66408;51.326;12.070;2023-07-31T12:53:34;4.93;;;1.98;;
77332;SDS011;66408;51.326;12.070;2023-07-31T12:56:01;3.97;;;1.70;;
77332;SDS011;66408;51.326;12.070;2023-07-31T12:58:28;3.58;;;1.85;;
77332;SDS011;66408;51.326;12.070;2023-07-31T13:00:54;3.75;;;1.77;;
77332;SDS011;66408;51.326;12.070;2023-07-31T13:03:21;5.32;;;1.50;;
77332;SDS011;66408;51.326;12.070;2023-07-31T13:05:47;6.15;;;2.53;;
77332;SDS011;66408;51.326;12.070;2023-07-31T13:08:14;4.88;;;1.77;;
77332;SDS011;66408;51.326;12.070;2023-07-31T13:10:42;4.72;;;1.50;;
77332;SDS011;66408;51.326;12.070;2023-07-31T13:13:09;4.20;;;1.45;;
77332;SDS011;66408;51.326;12.070;2023-07-31T13:15:36;2.92;;;1.80;;
77332;SDS011;66408;51.326;12.070;2023-07-31T13:18:03;4.72;;;1.95;;
77332;SDS011;66408;51.326;12.070;2023-07-31T13:20:30;5.15;;;2.13;;
77332;SDS011;66408;51.326;12.070;2023-07-31T13:22:56;2.65;;;1.27;;
77332;SDS011;66408;51.326;12.070;2023-07-31T13:25:23;5.53;;;2.35;;
77332;SDS011;66408;51.326;12.070;2023-07-31T13:27:49;2.63;;;1.60;;
77332;SDS011;66408;51.326;12.070;2023-07-31T13:30:16;4.30;;;1.92;;
77332;SDS011;66408;51.326;12.070;2023-07-31T13:32:42;4.15;;;1.85;;
77332;SDS011;66408;51.326;12.070;2023-07-31T13:35:09;2.85;;;1.60;;
77332;SDS011;66408;51.326;12.070;2023-07-31T13:37:37;3.30;;;1.65;;
77332;SDS011;66408;51.326;12.070;2023-07-31T13:40:04;3.47;;;1.80;;
77332;SDS011;66408;51.326;12.070;2023-07-31T13:42:32;4.35;;;1.85;;
77332;SDS011;66408;51.326;12.070;2023-07-31T13:44:59;3.35;;;1.92;;
77332;SDS011;66408;51.326;12.070;2023-07-31T13:47:28;3.42;;;1.60;;
77332;SDS011;66408;51.326;12.070;2023-07-31T13:49:55;2.83;;;1.67;;
77332;SDS011;66408;51.326;12.070;2023-07-31T13:52:21;4.28;;;1.80;;
77332;SDS011;66408;51.326;12.070;2023-07-31T13:54:48;3.13;;;1.55;;
77332;SDS011;66408;51.326;12.070;2023-07-31T13:57:14;4.63;;;1.83;;
77332;SDS011;66408;51.326;12.070;2023-07-31T13:59:41;3.70;;;1.45;;
77332;SDS011;66408;51.326;12.070;2023-07-31T14:02:07;6.47;;;2.35;;
77332;SDS011;66408;51.326;12.070;2023-07-31T14:04:34;3.13;;;1.70;;
77332;SDS011;66408;51.326;12.070;2023-07-31T14:07:01;3.17;;;1.80;;
77332;SDS011;66408;51.326;12.070;2023-07-31T14:12:46;2.60;;;1.60;;
77332;SDS011;66408;51.326;12.070;2023-07-31T14:15:13;2.55;;;1.38;;
77332;SDS011;66408;51.326;12.070;2023-07-31T14:17:39;3.22;;;1.50;;
77332;SDS011;66408;51.326;12.070;2023-07-31T14:20:07;3.17;;;1.58;;
77332;SDS011;66408;51.326;12.070;2023-07-31T14:22:34;4.47;;;1.77;;
77332;SDS011;66408;51.326;12.070;2023-07-31T14:25:01;3.03;;;1.50;;
77332;SDS011;66408;51.326;12.070;2023-07-31T14:27:28;2.75;;;1.50;;
77332;SDS011;66408;51.326;12.070;2023-07-31T14:29:54;2.70;;;1.30;;
77332;SDS011;66408;51.326;12.070;2023-07-31T14:32:22;3.05;;;1.50;;
77332;SDS011;66408;51.326;12.070;2023-07-31T14:34:52;4.03;;;1.60;;
77332;SDS011;66408;51.326;12.070;2023-07-31T14:37:19;3.80;;;1.65;;
77332;SDS011;66408;51.326;12.070;2023-07-31T14:39:45;3.47;;;1.60;;
77332;SDS011;66408;51.326;12.070;2023-07-31T14:42:12;3.72;;;1.45;;
77332;SDS011;66408;51.326;12.070;2023-07-31T14:44:39;2.85;;;1.65;;
77332;SDS011;66408;51.326;12.070;2023-07-31T14:47:05;4.53;;;1.80;;
77332;SDS011;66408;51.326;12.070;2023-07-31T14:49:32;2.58;;;1.33;;
77332;SDS011;66408;51.326;12.070;2023-07-31T14:51:58;2.95;;;1.40;;
77332;SDS011;66408;51.326;12.070;2023-07-31T14:54:25;4.32;;;1.70;;